createdAt,value
2023-05-06T00:00:42.923Z,73.67
2023-05-06T00:03:45.849Z,74.72
2023-05-06T00:06:48.961Z,73.84
2023-05-06T00:09:51.739Z,73.59
2023-05-06T00:12:53.590Z,73.80
2023-05-06T00:15:56.787Z,73.33
2023-05-06T00:18:58.918Z,73.07
2023-05-06T00:22:00.807Z,72.32
2023-05-06T00:25:03.973Z,73.11
2023-05-06T00:28:05.697Z,72.85
2023-05-06T00:31:09.764Z,73.31
2023-05-06T00:34:11.553Z,73.40
2023-05-06T00:37:13.368Z,73.37
2023-05-06T00:40:15.710Z,74.34
2023-05-06T00:43:17.626Z,74.33
2023-05-06T00:46:20.953Z,73.72
2023-05-06T00:49:23.927Z,74.05
2023-05-06T00:52:26.237Z,73.79
2023-05-06T00:55:28.120Z,74.08
2023-05-06T00:58:31.232Z,75.19
2023-05-06T01:01:34.509Z,74.66
2023-05-06T01:04:36.569Z,74.52
2023-05-06T01:07:46.464Z,75.12
2023-05-06T01:10:53.735Z,75.45
2023-05-06T01:14:01.493Z,75.68
2023-05-06T01:17:08.041Z,74.96
2023-05-06T01:20:15.369Z,75.55
2023-05-06T01:23:19.032Z,76.07
2023-05-06T01:26:22.357Z,75.83
2023-05-06T01:29:24.314Z,75.35
2023-05-06T01:32:40.489Z,76.04
2023-05-06T01:35:55.007Z,75.16
2023-05-06T01:39:07.760Z,75.38
2023-05-06T01:42:13.855Z,75.83
2023-05-06T01:45:17.172Z,76.50
2023-05-06T01:48:20.293Z,76.04
2023-05-06T01:51:23.045Z,76.30
2023-05-06T01:54:26.203Z,75.40
2023-05-06T01:57:28.690Z,75.39
2023-05-06T02:00:30.797Z,75.61
2023-05-06T02:03:32.675Z,75.27
2023-05-06T02:06:35.449Z,75.11
2023-05-06T02:09:38.723Z,75.58
2023-05-06T02:12:41.417Z,75.52
2023-05-06T02:15:43.373Z,74.69
2023-05-06T02:18:45.884Z,75.07
2023-05-06T02:21:47.720Z,74.88
2023-05-06T02:24:51.669Z,74.80
2023-05-06T02:27:53.519Z,75.55
2023-05-06T02:30:56.646Z,75.93
2023-05-06T02:33:58.437Z,75.14
2023-05-06T02:37:00.278Z,75.80
2023-05-06T02:40:04.810Z,75.50
2023-05-06T02:43:07.270Z,75.63
2023-05-06T02:46:09.145Z,75.27
2023-05-06T02:49:11.256Z,75.81
2023-05-06T02:52:13.126Z,76.00
2023-05-06T02:55:16.682Z,76.85
2023-05-06T02:58:18.519Z,76.41
2023-05-06T03:01:21.386Z,76.71
2023-05-06T03:04:23.263Z,76.63
2023-05-06T03:07:25.354Z,77.09
2023-05-06T03:10:28.575Z,76.69
2023-05-06T03:13:30.393Z,76.91
2023-05-06T03:16:33.358Z,76.64
2023-05-06T03:19:35.135Z,77.70
2023-05-06T03:22:37.005Z,77.64
2023-05-06T03:25:41.064Z,77.28
2023-05-06T03:28:44.703Z,77.53
2023-05-06T03:31:49.504Z,78.13
2023-05-06T03:34:51.345Z,77.91
2023-05-06T03:37:54.052Z,78.13
2023-05-06T03:40:57.270Z,77.96
2023-05-06T03:43:59.050Z,77.31
2023-05-06T03:47:01.070Z,76.92
2023-05-06T03:50:03.001Z,77.62
2023-05-06T03:53:05.580Z,78.30
2023-05-06T03:56:08.976Z,77.63
2023-05-06T03:59:11.268Z,78.02
2023-05-06T04:02:14.262Z,77.94
2023-05-06T04:05:17.317Z,78.30
2023-05-06T04:08:19.138Z,77.85
2023-05-06T04:11:22.360Z,75.20
2023-05-06T04:14:24.213Z,75.68
2023-05-06T04:17:26.120Z,76.06
2023-05-06T04:20:28.160Z,75.79
2023-05-06T04:23:29.937Z,77.02
2023-05-06T04:26:33.639Z,77.05
2023-05-06T04:29:36.018Z,76.82
2023-05-06T04:32:38.741Z,74.19
2023-05-06T04:35:41.228Z,74.19
2023-05-06T04:38:42.998Z,74.40
2023-05-06T04:41:46.420Z,74.92
2023-05-06T04:44:48.920Z,75.07
2023-05-06T04:47:52.432Z,75.16
2023-05-06T04:50:54.251Z,74.48
2023-05-06T04:53:57.408Z,74.57
2023-05-06T04:57:01.034Z,73.99
2023-05-06T05:00:03.612Z,73.97
2023-05-06T05:03:05.561Z,73.53
2023-05-06T05:06:07.787Z,74.80
2023-05-06T05:09:10.725Z,74.31
2023-05-06T05:12:13.945Z,74.46
2023-05-06T05:15:15.804Z,74.97
2023-05-06T05:18:18.794Z,75.25
2023-05-06T05:21:21.123Z,75.04
2023-05-06T05:24:23.896Z,75.58
2023-05-06T05:27:27.483Z,75.20
2023-05-06T05:30:29.928Z,74.72
2023-05-06T05:33:31.901Z,74.63
2023-05-06T05:36:33.750Z,75.15
2023-05-06T05:39:35.915Z,74.89
2023-05-06T05:42:39.467Z,74.43
2023-05-06T05:45:41.395Z,73.21
2023-05-06T05:48:43.837Z,73.25
2023-05-06T05:51:45.735Z,69.10
2023-05-06T05:54:47.732Z,69.75
2023-05-06T05:57:51.211Z,68.17
2023-05-06T06:00:53.017Z,67.55
2023-05-06T06:03:56.603Z,67.16
2023-05-06T06:06:58.794Z,66.22
2023-05-06T06:10:00.858Z,65.34
2023-05-06T06:13:03.997Z,64.27
2023-05-06T06:16:06.477Z,63.77
2023-05-06T06:19:09.128Z,62.94
2023-05-06T06:22:11.040Z,64.08
2023-05-06T06:25:13.835Z,62.33
2023-05-06T06:28:17.005Z,62.80
2023-05-06T06:31:18.857Z,62.78
2023-05-06T06:34:21.789Z,60.94
2023-05-06T06:37:23.588Z,61.33
2023-05-06T06:40:25.422Z,60.70
2023-05-06T06:43:28.639Z,60.43
2023-05-06T06:46:30.438Z,61.08
2023-05-06T06:49:32.628Z,59.97
2023-05-06T06:52:34.699Z,61.20
2023-05-06T06:55:36.779Z,59.79
2023-05-06T06:58:40.186Z,60.56
2023-05-06T07:01:42.462Z,60.53
2023-05-06T07:04:44.687Z,59.78
2023-05-06T07:07:46.621Z,59.68
2023-05-06T07:10:48.503Z,58.30
2023-05-06T07:13:51.692Z,59.90
2023-05-06T07:16:53.525Z,58.75
2023-05-06T07:19:55.528Z,58.16
2023-05-06T07:22:57.335Z,57.02
2023-05-06T07:25:59.639Z,58.46
2023-05-06T07:29:04.351Z,57.72
2023-05-06T07:32:06.440Z,57.78
2023-05-06T07:35:09.548Z,56.43
2023-05-06T07:38:11.459Z,56.15
2023-05-06T07:41:13.280Z,56.00
2023-05-06T07:44:16.871Z,57.95
2023-05-06T07:47:27.229Z,57.16
2023-05-06T07:50:29.848Z,57.19
2023-05-06T07:53:31.734Z,57.96
2023-05-06T07:56:34.463Z,56.43
2023-05-06T07:59:37.731Z,57.09
2023-05-06T08:02:44.637Z,56.55
2023-05-06T08:05:46.800Z,58.91
2023-05-06T08:08:49.517Z,57.13
2023-05-06T08:11:51.486Z,55.75
2023-05-06T08:14:55.280Z,55.68
2023-05-06T08:18:02.170Z,54.98
2023-05-06T08:21:09.119Z,56.14
2023-05-06T08:24:11.211Z,55.13
2023-05-06T08:27:13.565Z,54.25
2023-05-06T08:30:17.038Z,54.64
2023-05-06T08:33:19.364Z,53.83
2023-05-06T08:36:22.585Z,53.21
2023-05-06T08:39:24.463Z,51.75
2023-05-06T08:42:26.910Z,51.47
2023-05-06T08:45:30.345Z,52.18
2023-05-06T08:48:32.374Z,50.56
2023-05-06T08:51:35.388Z,49.89
2023-05-06T08:54:38.302Z,50.61
2023-05-06T08:57:42.557Z,49.75
2023-05-06T09:00:46.637Z,49.42
2023-05-06T09:03:49.999Z,50.77
2023-05-06T09:06:52.454Z,49.75
2023-05-06T09:09:54.317Z,49.95
2023-05-06T09:12:57.075Z,49.72
2023-05-06T09:16:00.766Z,48.46
2023-05-06T09:19:02.894Z,48.23
2023-05-06T09:22:05.671Z,48.41
2023-05-06T09:25:08.270Z,46.47
2023-05-06T09:28:12.007Z,47.74
2023-05-06T09:31:16.180Z,46.32
2023-05-06T09:34:18.329Z,46.38
2023-05-06T09:37:21.136Z,46.02
2023-05-06T09:40:26.080Z,46.02
2023-05-06T09:43:28.589Z,45.98
2023-05-06T09:46:33.078Z,45.85
2023-05-06T09:49:35.046Z,45.95
2023-05-06T09:52:37.653Z,43.89
2023-05-06T09:55:40.828Z,44.16
2023-05-06T09:58:43.311Z,45.65
2023-05-06T10:01:47.344Z,46.19
2023-05-06T10:04:49.775Z,44.84
2023-05-06T10:07:54.708Z,46.24
2023-05-06T10:10:57.299Z,46.68
2023-05-06T10:14:00.298Z,46.30
2023-05-06T10:17:06.853Z,45.90
2023-05-06T10:20:13.340Z,46.39
2023-05-06T10:23:23.774Z,51.06
2023-05-06T10:26:29.829Z,45.08
2023-05-06T10:29:35.985Z,45.79
2023-05-06T10:32:43.235Z,45.89
2023-05-06T10:35:53.112Z,46.31
2023-05-06T10:38:57.268Z,43.89
2023-05-06T10:41:59.236Z,45.48
2023-05-06T10:45:06.441Z,43.43
2023-05-06T10:48:09.783Z,43.72
2023-05-06T10:51:25.894Z,42.45
2023-05-06T10:54:27.655Z,43.01
2023-05-06T10:57:40.911Z,42.76
2023-05-06T11:00:53.014Z,44.47
2023-05-06T11:03:56.904Z,43.94
2023-05-06T11:07:08.016Z,43.08
2023-05-06T11:10:12.160Z,43.82
2023-05-06T11:13:22.369Z,42.53
2023-05-06T11:16:49.693Z,40.80
2023-05-06T11:20:19.141Z,41.20
2023-05-06T11:23:21.024Z,42.46
2023-05-06T11:26:24.593Z,40.08
2023-05-06T11:29:26.986Z,41.43
2023-05-06T11:32:29.928Z,40.71
2023-05-06T11:35:36.713Z,40.69
2023-05-06T11:38:42.673Z,40.52
2023-05-06T11:41:45.061Z,40.80
2023-05-06T11:44:46.880Z,43.14
2023-05-06T11:47:49.004Z,43.17
2023-05-06T11:50:52.385Z,43.86
2023-05-06T11:54:05.148Z,44.16
2023-05-06T11:57:08.204Z,43.18
2023-05-06T12:00:12.084Z,43.69
2023-05-06T12:03:14.731Z,44.62
2023-05-06T12:06:19.246Z,43.54
2023-05-06T12:09:24.626Z,46.79
2023-05-06T12:12:28.177Z,43.94
2023-05-06T12:15:30.292Z,42.81
2023-05-06T12:18:33.492Z,45.53
2023-05-06T12:21:39.495Z,44.06
2023-05-06T12:24:41.537Z,42.84
2023-05-06T12:27:43.763Z,46.02
2023-05-06T12:30:46.531Z,46.03
2023-05-06T12:33:49.906Z,46.87
2023-05-06T12:36:54.024Z,46.62
2023-05-06T12:39:58.723Z,47.02
2023-05-06T12:43:01.408Z,49.25
2023-05-06T12:46:05.224Z,45.50
2023-05-06T12:49:07.104Z,48.37
2023-05-06T12:52:11.808Z,46.02
2023-05-06T12:55:13.674Z,46.84
2023-05-06T12:58:16.142Z,46.50
2023-05-06T13:01:22.097Z,47.68
2023-05-06T13:04:24.254Z,49.17
2023-05-06T13:07:28.247Z,48.32
2023-05-06T13:10:30.056Z,47.59
2023-05-06T13:13:31.866Z,48.58
2023-05-06T13:16:35.385Z,48.90
2023-05-06T13:19:37.412Z,51.65
2023-05-06T13:22:53.670Z,53.07
2023-05-06T13:26:04.189Z,53.06
2023-05-06T13:29:07.068Z,54.09
2023-05-06T13:32:09.821Z,53.43
2023-05-06T13:35:11.836Z,53.95
2023-05-06T13:38:16.096Z,54.71
2023-05-06T13:41:17.983Z,55.11
2023-05-06T13:44:21.724Z,55.51
2023-05-06T13:47:24.384Z,56.19
2023-05-06T13:50:26.307Z,56.79
2023-05-06T13:53:30.183Z,57.67
2023-05-06T13:56:32.389Z,58.61
2023-05-06T13:59:34.662Z,59.46
2023-05-06T14:02:37.480Z,60.37
2023-05-06T14:05:39.807Z,61.34
2023-05-06T14:08:43.112Z,63.29
2023-05-06T14:11:45.660Z,63.31
2023-05-06T14:14:47.435Z,64.52
2023-05-06T14:17:49.915Z,66.52
2023-05-06T14:20:51.677Z,70.96
2023-05-06T14:23:55.005Z,73.55
2023-05-06T14:26:56.754Z,75.39
2023-05-06T14:29:59.595Z,77.51
2023-05-06T14:33:01.513Z,79.28
2023-05-06T14:36:03.574Z,79.70
2023-05-06T14:39:07.636Z,81.79
2023-05-06T14:42:09.728Z,82.29
2023-05-06T14:45:12.925Z,82.16
2023-05-06T14:48:15.613Z,83.00
2023-05-06T14:51:17.474Z,80.86
2023-05-06T14:54:21.064Z,82.56
2023-05-06T14:57:23.993Z,83.61
2023-05-06T15:00:26.760Z,82.26
2023-05-06T15:03:28.588Z,83.75
2023-05-06T15:06:30.553Z,83.40
2023-05-06T15:09:33.949Z,80.75
2023-05-06T15:12:37.434Z,80.96
2023-05-06T15:15:39.574Z,79.81
2023-05-06T15:18:42.096Z,82.16
2023-05-06T15:21:44.130Z,82.58
2023-05-06T15:24:47.899Z,84.10
2023-05-06T15:27:49.783Z,83.60
2023-05-06T15:30:52.454Z,81.43
2023-05-06T15:33:54.325Z,78.60
2023-05-06T15:36:56.452Z,80.23
2023-05-06T15:39:59.813Z,79.73
2023-05-06T15:43:01.725Z,78.23
2023-05-06T15:46:04.463Z,78.03
2023-05-06T15:52:11.257Z,75.20
2023-05-06T15:55:15.321Z,74.01
2023-05-06T15:58:18.395Z,74.79
2023-05-06T16:01:23.803Z,74.05
2023-05-06T16:04:31.948Z,73.68
2023-05-06T16:07:34.409Z,71.55
2023-05-06T16:10:37.533Z,72.67
2023-05-06T16:13:39.587Z,70.74
2023-05-06T16:16:42.361Z,71.14
2023-05-06T16:19:44.211Z,68.70
2023-05-06T16:22:49.863Z,70.28
2023-05-06T16:25:54.839Z,77.25
2023-05-06T16:28:56.643Z,72.96
2023-05-06T16:31:59.356Z,76.05
2023-05-06T16:35:01.244Z,76.48
2023-05-06T16:38:03.135Z,78.34
2023-05-06T16:41:07.139Z,80.30
2023-05-06T16:44:08.916Z,80.56
2023-05-06T16:47:11.312Z,82.20
2023-05-06T16:50:14.123Z,82.05
2023-05-06T16:53:17.478Z,82.59
2023-05-06T16:56:20.871Z,83.55
2023-05-06T16:59:23.657Z,83.32
2023-05-06T17:02:25.978Z,85.01
2023-05-06T17:05:28.289Z,84.50
2023-05-06T17:11:36.589Z,85.41
2023-05-06T17:14:38.528Z,85.81
2023-05-06T17:17:41.486Z,83.67
2023-05-06T17:20:54.398Z,81.90
2023-05-06T17:23:58.393Z,82.99
2023-05-06T17:27:02.349Z,84.48
2023-05-06T17:30:06.718Z,83.42
2023-05-06T17:33:08.713Z,84.09
2023-05-06T17:36:12.230Z,84.92
2023-05-06T17:39:14.510Z,85.07
2023-05-06T17:42:17.816Z,85.50
2023-05-06T17:45:20.183Z,84.49
2023-05-06T17:48:21.982Z,84.53
2023-05-06T17:51:24.256Z,84.55
2023-05-06T17:54:26.117Z,85.22
2023-05-06T17:57:30.558Z,85.78
2023-05-06T18:00:32.451Z,86.44
2023-05-06T18:03:34.411Z,83.78
2023-05-06T18:06:37.098Z,80.61
2023-05-06T18:09:38.994Z,81.61
2023-05-06T18:12:45.321Z,82.24
2023-05-06T18:15:47.278Z,81.21
2023-05-06T18:18:50.077Z,80.60
2023-05-06T18:21:51.975Z,82.79
2023-05-06T18:24:55.334Z,82.22
2023-05-06T18:27:59.417Z,82.13
2023-05-06T18:31:01.404Z,84.33
2023-05-06T18:34:04.079Z,85.08
2023-05-06T18:37:06.240Z,85.62
2023-05-06T18:40:09.199Z,84.42
2023-05-06T18:43:13.295Z,85.22
2023-05-06T18:46:15.256Z,85.53
2023-05-06T18:49:18.063Z,85.47
2023-05-06T18:52:19.980Z,84.13
2023-05-06T18:55:22.040Z,84.84
2023-05-06T18:58:25.288Z,85.51
2023-05-06T19:01:28.260Z,86.88
2023-05-06T19:04:30.302Z,86.93
2023-05-06T19:07:32.374Z,85.42
2023-05-06T19:10:34.496Z,85.50
2023-05-06T19:13:37.745Z,86.32
2023-05-06T19:16:40.185Z,86.74
2023-05-06T19:19:42.182Z,86.71
2023-05-06T19:22:44.944Z,85.60
2023-05-06T19:25:46.907Z,83.61
2023-05-06T19:28:50.167Z,84.86
2023-05-06T19:31:52.122Z,85.30
2023-05-06T19:34:54.134Z,85.94
2023-05-06T19:37:57.031Z,86.24
2023-05-06T19:40:58.967Z,86.28
2023-05-06T19:44:02.290Z,86.07
2023-05-06T19:47:05.012Z,85.92
2023-05-06T19:50:08.411Z,86.04
2023-05-06T19:53:11.139Z,86.52
2023-05-06T19:56:14.399Z,86.04
2023-05-06T19:59:18.367Z,86.53
2023-05-06T20:02:20.631Z,85.29
2023-05-06T20:05:23.293Z,83.51
2023-05-06T20:08:25.184Z,80.00
2023-05-06T20:11:28.075Z,77.25
2023-05-06T20:14:31.426Z,78.16
2023-05-06T20:17:34.478Z,76.03
2023-05-06T20:20:39.925Z,76.12
2023-05-06T20:23:41.785Z,76.93
2023-05-06T20:26:43.905Z,77.71
2023-05-06T20:29:47.604Z,78.53
2023-05-06T20:32:51.894Z,79.60
2023-05-06T20:35:55.544Z,80.27
2023-05-06T20:38:57.857Z,79.24
2023-05-06T20:42:00.044Z,79.74
2023-05-06T20:45:04.352Z,80.19
2023-05-06T20:48:06.390Z,78.87
2023-05-06T20:51:08.655Z,79.30
2023-05-06T20:54:10.630Z,80.49
2023-05-06T20:57:13.880Z,80.99
2023-05-06T21:00:17.758Z,81.27
2023-05-06T21:03:19.738Z,81.72
2023-05-06T21:06:22.712Z,81.95
2023-05-06T21:09:25.013Z,82.49
2023-05-06T21:12:26.846Z,82.84
2023-05-06T21:15:30.457Z,79.18
2023-05-06T21:18:32.380Z,77.12
2023-05-06T21:21:34.829Z,78.32
2023-05-06T21:24:36.714Z,80.12
2023-05-06T21:27:38.576Z,79.49
2023-05-06T21:30:41.937Z,80.28
2023-05-06T21:33:43.769Z,78.51
2023-05-06T21:36:46.564Z,80.85
2023-05-06T21:39:48.408Z,80.08
2023-05-06T21:42:50.258Z,80.51
2023-05-06T21:45:53.957Z,80.44
2023-05-06T21:48:56.014Z,79.29
2023-05-06T21:51:58.508Z,79.13
2023-05-06T21:55:00.589Z,78.21
2023-05-06T21:58:02.384Z,78.53
2023-05-06T22:01:06.175Z,78.41
2023-05-06T22:04:13.078Z,79.78
2023-05-06T22:07:16.630Z,80.48
2023-05-06T22:10:18.507Z,79.22
2023-05-06T22:13:20.929Z,79.21
2023-05-06T22:16:25.896Z,76.49
2023-05-06T22:19:28.122Z,75.63
2023-05-06T22:22:30.468Z,75.11
2023-05-06T22:25:32.233Z,75.30
2023-05-06T22:28:34.517Z,75.45
2023-05-06T22:31:37.751Z,76.89
2023-05-06T22:34:40.430Z,76.91
2023-05-06T22:37:42.298Z,77.25
2023-05-06T22:40:44.195Z,77.87
2023-05-06T22:43:46.490Z,77.19
2023-05-06T22:46:49.716Z,78.17
2023-05-06T22:49:52.398Z,78.24
2023-05-06T22:52:54.260Z,78.35
2023-05-06T22:55:56.086Z,77.55
2023-05-06T22:58:58.364Z,77.97
2023-05-06T23:02:02.015Z,77.66
2023-05-06T23:05:05.080Z,77.79
2023-05-06T23:08:06.967Z,76.27
2023-05-06T23:11:08.792Z,77.59
2023-05-06T23:14:10.689Z,77.09
2023-05-06T23:17:13.934Z,75.72
2023-05-06T23:20:17.259Z,76.31
2023-05-06T23:23:19.088Z,77.21
2023-05-06T23:26:21.368Z,77.28
2023-05-06T23:29:23.141Z,77.53
2023-05-06T23:32:26.565Z,76.42
2023-05-06T23:35:28.505Z,76.66
2023-05-06T23:38:30.365Z,77.52
2023-05-06T23:41:32.307Z,77.65
2023-05-06T23:44:34.083Z,77.91
2023-05-06T23:47:37.296Z,77.38
2023-05-06T23:50:39.172Z,77.15
2023-05-06T23:53:41.502Z,76.87
2023-05-06T23:56:43.339Z,76.34
2023-05-06T23:59:45.260Z,76.50
